Time;durP1;ratioP1;P1;durP2;ratioP2;P2;SDS_P1;SDS_P2;PMS_P1;PMS_P2;Temp;Humidity;BMP_temperature;BMP_pressure;BME280_temperature;BME280_humidity;BME280_pressure;Samples;Min_cycle;Max_cycle;Signal;HPM_P1;HPM_P2
2021/12/07 00:01:44;;;;;;;4.55;0.68;;;;;;;0.84;78.94;99325.72;4966128;28;20074;-55
2021/12/07 00:04:11;;;;;;;2.67;0.90;;;;;;;0.83;77.86;99323.97;4969815;28;20058;-55
2021/12/07 00:06:39;;;;;;;3.83;0.82;;;;;;;0.84;77.96;99328.25;4970856;28;20101;-54
2021/12/07 00:09:09;;;;;;;1.60;0.82;;;;;;;0.83;77.85;99329.06;4969617;28;20129;-50
2021/12/07 00:11:38;;;;;;;;;;;;;;;0.80;77.94;99336.63;4968036;28;20059;-52
2021/12/07 00:14:12;;;;;;;1.77;1.15;;;;;;;0.82;78.22;99335.00;4970144;28;19922;-53
2021/12/07 00:16:42;;;;;;;1.67;0.60;;;;;;;0.82;78.49;99340.97;4966119;28;20061;-54
2021/12/07 00:19:09;;;;;;;10.13;0.63;;;;;;;0.82;78.09;99338.41;4968409;28;20462;-51
2021/12/07 00:21:41;;;;;;;1.75;0.43;;;;;;;0.79;78.82;99342.56;4969093;28;20063;-55
2021/12/07 00:24:09;;;;;;;2.88;0.75;;;;;;;0.80;78.46;99334.06;4968953;28;20893;-50
2021/12/07 00:26:38;;;;;;;2.22;0.88;;;;;;;0.81;79.01;99346.88;4970172;28;20138;-55
2021/12/07 00:29:07;;;;;;;4.53;0.43;;;;;;;0.79;78.52;99337.47;4967112;28;20047;-52
2021/12/07 00:31:40;;;;;;;4.80;0.80;;;;;;;0.78;79.08;99346.81;4970788;28;20043;-54
2021/12/07 00:34:15;;;;;;;4.30;1.02;;;;;;;0.80;77.95;99349.38;4968787;28;20526;-54
2021/12/07 00:36:47;;;;;;;6.85;1.00;;;;;;;0.79;78.15;99347.66;4970465;28;20102;-51
2021/12/07 00:39:18;;;;;;;3.75;1.02;;;;;;;0.80;78.26;99344.28;4968143;28;20043;-55
2021/12/07 00:41:45;;;;;;;2.10;0.70;;;;;;;0.79;78.93;99343.44;4968787;28;20051;-49
2021/12/07 00:44:12;;;;;;;6.38;1.40;;;;;;;0.77;78.37;99348.50;4967198;28;20101;-54
2021/12/07 00:46:39;;;;;;;6.03;0.95;;;;;;;0.76;78.36;99358.66;4967081;28;20097;-52
2021/12/07 00:49:06;;;;;;;1.92;0.70;;;;;;;0.75;78.93;99367.97;4968828;28;20502;-55
2021/12/07 00:51:33;;;;;;;6.53;0.63;;;;;;;0.75;78.79;99362.03;4967910;28;20063;-55
2021/12/07 00:54:00;;;;;;;4.43;0.82;;;;;;;0.73;78.05;99364.53;4970445;28;20716;-52
2021/12/07 00:56:27;;;;;;;4.45;0.77;;;;;;;0.71;78.27;99371.25;4967765;28;20051;-50
2021/12/07 00:58:54;;;;;;;2.45;0.60;;;;;;;0.73;78.57;99367.09;4969209;28;20042;-52
2021/12/07 01:01:21;;;;;;;3.63;1.15;;;;;;;0.71;78.20;99350.88;4981999;28;20043;-51
2021/12/07 01:03:49;;;;;;;7.43;0.85;;;;;;;0.74;78.33;99357.72;4969539;28;20047;-51
2021/12/07 01:06:25;;;;;;;3.30;0.80;;;;;;;0.71;78.79;99345.78;4966917;28;20055;-55
2021/12/07 01:09:08;;;;;;;4.20;1.13;;;;;;;0.71;78.12;99330.47;4968006;28;20085;-53
2021/12/07 01:25:43;;;;;;;3.13;1.00;;;;;;;0.62;78.61;99299.66;4967620;28;20075;-53
2021/12/07 01:28:25;;;;;;;10.60;1.05;;;;;;;0.61;78.58;99297.94;4968058;28;20046;-57
2021/12/07 01:30:59;;;;;;;1.90;0.60;;;;;;;0.58;79.33;99296.16;4968381;28;20603;-51
2021/12/07 01:36:41;;;;;;;3.30;0.35;;;;;;;0.57;78.76;99296.16;4967345;28;20447;-54
2021/12/07 01:44:51;;;;;;;6.43;0.82;;;;;;;0.57;78.80;99288.50;4965195;28;20087;-51
2021/12/07 01:47:34;;;;;;;4.55;0.82;;;;;;;0.56;78.93;99291.84;4970084;28;20055;-51
2021/12/07 01:50:20;;;;;;;1.27;0.32;;;;;;;0.54;79.26;99291.81;4964134;28;20673;-52
2021/12/07 02:01:10;;;;;;;5.10;0.70;;;;;;;0.47;79.47;99283.16;4963131;28;20051;-51
2021/12/07 02:03:39;;;;;;;3.78;1.20;;;;;;;0.49;78.58;99284.06;4960884;28;20054;-55
2021/12/07 02:06:07;;;;;;;5.65;0.60;;;;;;;0.50;78.29;99287.47;4964818;28;20050;-51
2021/12/07 02:08:33;;;;;;;4.00;0.65;;;;;;;0.49;78.63;99278.09;4960839;28;20054;-53
2021/12/07 02:11:02;;;;;;;1.25;0.30;;;;;;;0.49;78.68;99284.06;4963264;28;20534;-52
2021/12/07 02:16:18;;;;;;;5.80;0.60;;;;;;;0.50;79.18;99284.91;4966151;28;20077;-52
2021/12/07 02:18:45;;;;;;;2.08;0.57;;;;;;;0.50;79.21;99282.34;4966775;28;20082;-51
2021/12/07 02:21:14;;;;;;;7.78;0.75;;;;;;;0.50;79.18;99288.34;4967545;28;20109;-56
2021/12/07 02:23:41;;;;;;;2.15;0.70;;;;;;;0.51;79.05;99302.78;4967955;28;20442;-50
2021/12/07 02:26:08;;;;;;;2.22;0.75;;;;;;;0.50;78.80;99295.97;4964845;28;20102;-51
2021/12/07 02:28:38;;;;;;;4.43;0.77;;;;;;;0.50;78.73;99293.44;4965560;28;20109;-52
2021/12/07 02:31:08;;;;;;;4.22;1.13;;;;;;;0.54;78.57;99290.97;4968319;28;20097;-49
2021/12/07 02:33:35;;;;;;;1.95;0.47;;;;;;;0.56;79.35;99294.41;4967511;28;20669;-50
2021/12/07 02:36:03;;;;;;;2.85;0.30;;;;;;;0.56;79.25;99287.63;4967499;28;20051;-54
2021/12/07 02:38:30;;;;;;;3.72;0.68;;;;;;;0.57;78.58;99291.91;4963957;28;20109;-52
2021/12/07 02:40:57;;;;;;;2.70;0.50;;;;;;;0.57;79.30;99286.78;4969929;28;20129;-53
2021/12/07 02:43:24;;;;;;;6.22;0.68;;;;;;;0.58;79.08;99300.41;4966734;28;20043;-50
2021/12/07 02:45:51;;;;;;;7.85;0.50;;;;;;;0.58;79.20;99290.22;4968308;28;20043;-50
2021/12/07 02:48:21;;;;;;;6.00;0.82;;;;;;;0.57;78.87;99275.75;4966963;28;20051;-49
2021/12/07 02:50:50;;;;;;;5.45;0.40;;;;;;;0.57;78.76;99266.41;4966547;28;20081;-50
2021/12/07 02:53:21;;;;;;;1.83;0.38;;;;;;;0.57;78.76;99257.91;4983310;28;20113;-50
2021/12/07 02:55:50;;;;;;;3.03;0.50;;;;;;;0.56;78.03;99258.72;4963697;28;20055;-48
2021/12/07 02:58:18;;;;;;;3.25;0.47;;;;;;;0.53;78.92;99273.97;4968059;28;20638;-48
2021/12/07 03:00:54;;;;;;;5.28;0.60;;;;;;;0.50;78.47;99280.69;4965871;28;20098;-52
2021/12/07 03:03:21;;;;;;;8.85;0.70;;;;;;;0.47;78.96;99285.69;4964696;28;20049;-53
2021/12/07 03:06:00;;;;;;;6.13;0.70;;;;;;;0.45;78.95;99291.59;4964638;28;20069;-53
2021/12/07 03:28:03;;;;;;;2.85;0.57;;;;;;;0.38;78.31;99306.69;4963544;28;20059;-48
2021/12/07 03:30:30;;;;;;;6.13;0.73;;;;;;;0.40;78.88;99300.81;4958128;28;20137;-54
2021/12/07 03:32:57;;;;;;;4.45;0.65;;;;;;;0.40;79.30;99299.09;4965616;28;20133;-51
2021/12/07 03:35:23;;;;;;;1.23;0.40;;;;;;;0.38;78.27;99282.94;4958980;28;20192;-52
2021/12/07 03:37:50;;;;;;;3.15;0.90;;;;;;;0.36;78.81;99302.38;4964301;28;20069;-47
2021/12/07 03:40:17;;;;;;;1.92;0.43;;;;;;;0.33;79.03;99298.06;4960134;28;20063;-54
2021/12/07 03:42:44;;;;;;;3.33;0.98;;;;;;;0.30;78.69;99295.44;4961993;28;20537;-51
2021/12/07 03:45:12;;;;;;;3.53;0.70;;;;;;;0.30;78.78;99299.69;4962047;28;20053;-55
2021/12/07 03:47:39;;;;;;;2.05;0.52;;;;;;;0.29;78.31;99301.38;4958679;28;20113;-49
2021/12/07 03:50:08;;;;;;;1.70;0.40;;;;;;;0.29;78.61;99311.56;4964971;28;20058;-47
2021/12/07 03:52:35;;;;;;;5.10;0.52;;;;;;;0.29;78.31;99310.69;4963814;28;20549;-49
2021/12/07 03:55:04;;;;;;;3.47;0.65;;;;;;;0.30;78.89;99310.72;4966076;28;20097;-47
2021/12/07 03:57:30;;;;;;;4.65;0.52;;;;;;;0.31;78.71;99301.41;4965039;28;20587;-56
2021/12/07 03:59:59;;;;;;;2.53;0.70;;;;;;;0.32;79.17;99296.38;4964380;28;20051;-54
2021/12/07 04:02:26;;;;;;;9.93;0.80;;;;;;;0.34;78.97;99293.84;4965583;28;20066;-54
2021/12/07 04:04:59;;;;;;;1.70;0.85;;;;;;;0.38;78.86;99288.03;4974502;28;20381;-56
2021/12/07 04:07:26;;;;;;;2.55;0.73;;;;;;;0.38;78.77;99285.47;4961505;28;20421;-49
2021/12/07 04:09:53;;;;;;;6.63;0.85;;;;;;;0.40;78.03;99278.72;4964539;28;20109;-56
2021/12/07 04:12:19;;;;;;;7.45;0.60;;;;;;;0.42;78.21;99279.63;4962267;28;20944;-53
2021/12/07 04:14:46;;;;;;;5.40;0.50;;;;;;;0.42;78.67;99272.00;4966806;28;20474;-53
2021/12/07 04:17:13;;;;;;;2.90;0.65;;;;;;;0.46;79.32;99273.78;4965039;28;20113;-51
2021/12/07 04:19:39;;;;;;;3.55;0.73;;;;;;;0.47;78.69;99265.31;4959928;28;20046;-51
2021/12/07 04:22:06;;;;;;;4.93;0.52;;;;;;;0.49;78.23;99258.59;4965117;28;20042;-54
2021/12/07 04:24:32;;;;;;;2.33;0.98;;;;;;;0.51;78.53;99256.91;4961219;28;20097;-54
2021/12/07 04:26:59;;;;;;;3.63;0.40;;;;;;;0.52;78.67;99262.88;4965155;28;20605;-54
2021/12/07 04:29:26;;;;;;;2.97;0.73;;;;;;;0.53;78.57;99258.66;4964131;28;20051;-53
2021/12/07 04:31:52;;;;;;;5.72;1.10;;;;;;;0.55;77.99;99251.91;4967145;28;20451;-49
2021/12/07 04:34:19;;;;;;;3.72;1.05;;;;;;;0.57;78.58;99252.81;4960826;28;20051;-50
2021/12/07 04:36:46;;;;;;;8.80;1.30;;;;;;;0.60;78.50;99245.22;4964937;28;20101;-52
2021/12/07 04:39:13;;;;;;;2.90;1.08;;;;;;;0.62;78.24;99253.78;4962762;28;20600;-55
2021/12/07 04:41:42;;;;;;;4.32;0.77;;;;;;;0.66;78.77;99240.28;4967043;28;20114;-53
2021/12/07 04:44:09;;;;;;;3.53;0.40;;;;;;;0.69;78.13;99230.19;4970321;28;20128;-50
2021/12/07 04:46:45;;;;;;;2.90;0.60;;;;;;;0.74;78.99;99231.13;4966357;28;20063;-49
2021/12/07 04:57:44;;;;;;;5.82;0.70;;;;;;;0.81;78.67;99221.09;4963157;28;20101;-54
2021/12/07 05:00:20;;;;;;;6.40;0.80;;;;;;;0.84;78.30;99209.28;4961514;28;20110;-49
2021/12/07 05:02:53;;;;;;;9.07;0.40;;;;;;;0.85;78.24;99208.44;4966826;28;20046;-53
2021/12/07 05:05:24;;;;;;;3.47;0.50;;;;;;;0.90;78.18;99208.56;4969199;28;20101;-53
2021/12/07 05:07:54;;;;;;;2.55;0.90;;;;;;;0.92;78.36;99206.03;4962368;28;20050;-53
2021/12/07 05:10:28;;;;;;;7.32;0.70;;;;;;;0.94;78.51;99207.78;4964613;28;20054;-50
2021/12/07 05:13:19;;;;;;;8.18;0.73;;;;;;;0.95;78.41;99201.03;4966900;28;20487;-47
2021/12/07 05:16:56;;;;;;;2.45;0.40;;;;;;;0.94;78.24;99196.75;4964263;28;20165;-54
2021/12/07 05:24:08;;;;;;;5.43;0.70;;;;;;;0.97;78.26;99186.59;4966983;28;20047;-51
2021/12/07 05:37:54;;;;;;;4.10;0.60;;;;;;;1.04;78.22;99162.97;4945889;28;20051;-50
2021/12/07 05:40:25;;;;;;;3.55;0.47;;;;;;;1.05;77.71;99151.06;4957039;28;20965;-50
2021/12/07 05:42:53;;;;;;;3.00;0.60;;;;;;;1.04;77.61;99139.16;4967839;28;20097;-51
2021/12/07 05:45:27;;;;;;;5.18;0.52;;;;;;;1.02;77.42;99137.41;4964778;28;20101;-53
2021/12/07 05:47:54;;;;;;;4.20;1.08;;;;;;;0.98;77.59;99130.53;4968595;28;20053;-51
2021/12/07 05:50:24;;;;;;;5.18;0.30;;;;;;;0.98;77.34;99114.41;4964213;28;20137;-53
2021/12/07 05:52:51;;;;;;;8.35;1.25;;;;;;;0.95;77.40;99112.59;4967024;28;20038;-55
2021/12/07 05:55:18;;;;;;;5.53;1.10;;;;;;;0.93;77.64;99109.19;4967313;28;20202;-55
2021/12/07 05:57:45;;;;;;;5.55;0.63;;;;;;;0.93;77.54;99110.88;4966157;28;20105;-54
2021/12/07 06:00:23;;;;;;;2.60;0.70;;;;;;;0.91;77.33;99118.47;4964225;28;21582;-51
2021/12/07 06:02:53;;;;;;;8.13;1.05;;;;;;;0.94;78.01;99108.34;4964334;28;20047;-52
2021/12/07 06:05:21;;;;;;;3.88;0.47;;;;;;;0.91;78.13;99097.25;4963005;28;20047;-52
2021/12/07 06:07:48;;;;;;;3.78;0.70;;;;;;;0.85;78.51;99092.88;4965395;28;20219;-53
2021/12/07 06:10:14;;;;;;;5.97;1.25;;;;;;;0.84;77.77;99083.50;4967542;28;20051;-53
2021/12/07 06:12:41;;;;;;;4.05;0.80;;;;;;;0.85;78.20;99083.50;4969172;28;20046;-57
2021/12/07 06:15:08;;;;;;;3.80;1.13;;;;;;;0.85;77.73;99073.31;4965517;28;20054;-52
2021/12/07 06:17:35;;;;;;;6.00;0.77;;;;;;;0.87;78.32;99065.69;4966925;28;20102;-51
2021/12/07 06:20:04;;;;;;;6.05;1.25;;;;;;;0.86;78.23;99054.66;4961729;28;20494;-54
2021/12/07 06:22:31;;;;;;;3.05;0.63;;;;;;;0.89;77.44;99038.56;4965715;28;20105;-52
2021/12/07 06:24:58;;;;;;;2.05;0.63;;;;;;;0.89;77.76;99023.25;4966579;28;20474;-52
2021/12/07 06:27:24;;;;;;;4.25;0.43;;;;;;;0.87;78.27;99014.72;4963408;28;20059;-53
2021/12/07 06:29:51;;;;;;;2.42;0.50;;;;;;;0.90;78.06;99022.44;4965188;28;20055;-48
2021/12/07 06:32:18;;;;;;;8.32;0.75;;;;;;;0.92;78.66;99022.47;4965495;28;20487;-52
2021/12/07 06:34:44;;;;;;;4.10;0.80;;;;;;;0.96;77.49;99021.69;4967433;28;20058;-50
2021/12/07 06:37:11;;;;;;;5.45;0.98;;;;;;;0.99;77.38;99014.09;4965823;28;20050;-52
2021/12/07 06:39:37;;;;;;;2.38;0.40;;;;;;;0.98;77.50;99012.38;4968574;28;20051;-53
2021/12/07 06:42:04;;;;;;;5.00;0.82;;;;;;;1.01;78.00;99013.28;4966769;28;20051;-50
2021/12/07 06:44:31;;;;;;;3.05;0.60;;;;;;;1.00;78.36;99016.69;4964613;28;20434;-55
2021/12/07 06:46:57;;;;;;;5.18;0.57;;;;;;;1.05;78.18;99008.25;4968318;28;20087;-53
2021/12/07 06:49:24;;;;;;;8.40;1.00;;;;;;;1.08;77.45;99008.31;4965173;28;20102;-48
2021/12/07 06:51:51;;;;;;;4.35;0.55;;;;;;;1.10;77.73;98997.31;4963787;28;20046;-52
2021/12/07 06:54:19;;;;;;;8.35;1.13;;;;;;;1.13;77.69;98993.97;4966085;28;20105;-54
2021/12/07 06:56:46;;;;;;;7.13;0.52;;;;;;;1.13;77.19;98994.81;4965380;28;20043;-51
2021/12/07 06:59:12;;;;;;;2.22;1.17;;;;;;;1.15;77.85;98990.59;4967524;28;20050;-56
2021/12/07 07:01:39;;;;;;;4.15;0.57;;;;;;;1.14;77.91;98972.72;4964364;28;20046;-53
2021/12/07 07:04:08;;;;;;;10.88;0.88;;;;;;;1.15;77.95;98962.53;4967046;28;20129;-53
2021/12/07 07:06:35;;;;;;;3.42;0.60;;;;;;;1.15;77.87;98949.78;4967195;28;20038;-52
2021/12/07 07:09:03;;;;;;;5.30;0.60;;;;;;;1.15;77.62;98933.66;4963311;28;20055;-52
2021/12/07 07:11:30;;;;;;;4.20;0.40;;;;;;;1.14;77.64;98921.69;4965978;28;20042;-54
2021/12/07 07:13:57;;;;;;;4.97;1.00;;;;;;;1.17;77.08;98911.56;4967230;28;20059;-53
2021/12/07 07:16:24;;;;;;;4.47;0.65;;;;;;;1.16;78.39;98904.75;4969506;28;20053;-54
2021/12/07 07:18:51;;;;;;;3.03;0.40;;;;;;;1.14;78.39;98898.75;4966988;28;20039;-53
2021/12/07 07:21:18;;;;;;;7.72;0.98;;;;;;;1.15;77.81;98897.94;4966124;28;20054;-49
2021/12/07 07:23:45;;;;;;;2.40;0.43;;;;;;;1.17;78.23;98890.28;4966257;28;20102;-55
2021/12/07 07:26:12;;;;;;;4.38;0.73;;;;;;;1.20;78.06;98883.56;4962370;28;20047;-54
2021/12/07 07:28:39;;;;;;;3.30;0.88;;;;;;;1.25;76.65;98878.53;4965872;28;20463;-51
2021/12/07 07:31:08;;;;;;;4.82;0.57;;;;;;;1.25;77.04;98889.56;4961642;28;20054;-57
2021/12/07 07:33:36;;;;;;;4.40;0.77;;;;;;;1.28;77.01;98879.44;4963112;28;20062;-51
2021/12/07 07:36:04;;;;;;;5.45;1.00;;;;;;;1.27;77.98;98877.72;4962541;28;20522;-55
2021/12/07 07:38:31;;;;;;;4.70;0.98;;;;;;;1.26;76.79;98875.16;4969162;28;20050;-55
2021/12/07 07:40:59;;;;;;;2.65;0.95;;;;;;;1.27;78.05;98881.97;4959965;28;20047;-53
2021/12/07 07:43:26;;;;;;;5.75;0.68;;;;;;;1.28;77.53;98878.56;4966172;28;20043;-57
2021/12/07 07:45:53;;;;;;;8.77;0.88;;;;;;;1.27;76.95;98867.53;4967111;28;20066;-55
2021/12/07 07:48:20;;;;;;;3.22;1.08;;;;;;;1.30;77.04;98860.72;4967330;28;20907;-51
2021/12/07 07:50:49;;;;;;;4.05;1.15;;;;;;;1.29;77.23;98849.69;4965103;28;20050;-51
2021/12/07 07:53:17;;;;;;;3.28;0.88;;;;;;;1.29;77.91;98839.47;4965636;28;20541;-52
2021/12/07 07:55:48;;;;;;;3.15;0.80;;;;;;;1.26;76.87;98847.09;4947039;28;20062;-53
2021/12/07 07:58:15;;;;;;;6.57;0.88;;;;;;;1.27;77.36;98839.47;4958325;28;20442;-56
2021/12/07 08:00:42;;;;;;;4.05;0.73;;;;;;;1.26;77.63;98830.09;4958738;28;20086;-54
2021/12/07 08:03:09;;;;;;;8.05;0.98;;;;;;;1.27;77.78;98829.25;4960825;28;20051;-53
2021/12/07 08:05:37;;;;;;;3.83;0.82;;;;;;;1.31;77.67;98824.19;4963680;28;20106;-52
2021/12/07 08:08:03;;;;;;;4.47;0.70;;;;;;;1.32;77.16;98813.16;4960414;28;20054;-54
2021/12/07 08:10:31;;;;;;;5.85;0.70;;;;;;;1.34;77.26;98801.25;4962175;28;20057;-53
2021/12/07 08:13:01;;;;;;;2.83;0.68;;;;;;;1.38;77.51;98777.50;4960010;28;20051;-53
2021/12/07 08:15:30;;;;;;;4.78;0.77;;;;;;;1.39;77.22;98769.03;4965163;28;20062;-54
2021/12/07 08:17:58;;;;;;;2.75;0.45;;;;;;;1.42;78.53;98779.28;4965861;28;20109;-54
2021/12/07 08:20:25;;;;;;;6.32;0.75;;;;;;;1.43;77.81;98786.09;4964286;28;20058;-52
2021/12/07 08:22:52;;;;;;;7.32;1.23;;;;;;;1.50;77.97;98787.91;4966162;28;20043;-53
2021/12/07 08:25:19;;;;;;;4.15;0.77;;;;;;;1.46;77.18;98763.19;4962693;28;20055;-55
2021/12/07 08:27:46;;;;;;;4.78;0.95;;;;;;;1.47;78.17;98757.22;4960887;28;20055;-55
2021/12/07 08:30:14;;;;;;;4.82;0.73;;;;;;;1.48;77.64;98752.97;4965605;28;20441;-57
2021/12/07 08:32:45;;;;;;;5.88;1.00;;;;;;;1.45;77.25;98746.13;4976729;28;20491;-55
2021/12/07 08:35:15;;;;;;;3.22;0.63;;;;;;;1.46;77.94;98740.22;4947533;28;20116;-55
2021/12/07 08:37:46;;;;;;;2.35;1.02;;;;;;;1.44;76.81;98730.81;4962628;28;20530;-53
2021/12/07 08:40:16;;;;;;;2.85;0.60;;;;;;;1.46;78.12;98727.47;4967203;28;20055;-54
2021/12/07 08:42:43;;;;;;;8.23;2.03;;;;;;;1.48;77.00;98718.13;4968366;28;20129;-55
2021/12/07 08:45:10;;;;;;;5.57;0.70;;;;;;;1.50;78.13;98701.13;4966373;28;20043;-54
2021/12/07 08:47:37;;;;;;;3.92;0.80;;;;;;;1.53;78.16;98693.50;4965594;28;20610;-54
2021/12/07 08:50:13;;;;;;;2.00;0.77;;;;;;;1.53;78.03;98675.63;4971257;28;20101;-55
2021/12/07 08:52:40;;;;;;;4.95;0.93;;;;;;;1.58;77.53;98657.81;4967772;28;20047;-52
2021/12/07 09:00:41;;;;;;;3.80;1.25;;;;;;;1.66;76.97;98640.06;4964402;28;20109;-52
2021/12/07 09:03:07;;;;;;;8.43;0.85;;;;;;;1.66;77.34;98651.09;4968401;28;20078;-53
2021/12/07 09:05:35;;;;;;;1.60;0.50;;;;;;;1.67;76.77;98649.41;4965750;28;20053;-53
2021/12/07 09:08:02;;;;;;;3.72;0.88;;;;;;;1.68;76.48;98653.69;4963995;28;20062;-54
2021/12/07 09:10:29;;;;;;;7.50;1.17;;;;;;;1.70;76.24;98643.50;4963799;28;20458;-49
2021/12/07 09:12:55;;;;;;;9.90;1.30;;;;;;;1.74;77.29;98642.69;4966122;28;20560;-54
2021/12/07 09:15:22;;;;;;;6.20;1.90;;;;;;;1.71;77.65;98630.75;4965493;28;20049;-54
2021/12/07 09:17:49;;;;;;;4.32;0.65;;;;;;;1.74;76.33;98640.13;4965728;28;20114;-50
2021/12/07 09:20:16;;;;;;;1.13;0.30;;;;;;;1.74;76.28;98629.91;4968340;28;20651;-53
2021/12/07 09:22:45;;;;;;;3.50;1.13;;;;;;;1.74;76.97;98620.56;4964123;28;20422;-53
2021/12/07 09:25:12;;;;;;;4.18;0.68;;;;;;;1.76;76.82;98602.72;4968055;28;20097;-55
2021/12/07 09:27:39;;;;;;;1.55;0.95;;;;;;;1.78;77.40;98578.91;4963618;28;20054;-51
2021/12/07 09:30:10;;;;;;;2.50;0.95;;;;;;;1.78;76.86;98563.59;4962159;28;20055;-52
2021/12/07 09:32:37;;;;;;;8.52;1.05;;;;;;;1.80;76.18;98541.47;4964449;28;20042;-55
2021/12/07 09:35:06;;;;;;;4.18;0.77;;;;;;;1.86;75.41;98519.41;4963058;28;20062;-53
2021/12/07 09:37:33;;;;;;;2.97;0.95;;;;;;;1.88;76.19;98497.28;4967599;28;20051;-53
2021/12/07 09:40:00;;;;;;;5.35;1.08;;;;;;;1.88;77.09;98481.94;4964935;28;20059;-54
2021/12/07 09:42:27;;;;;;;7.57;0.95;;;;;;;1.92;75.84;98493.91;4968422;28;20668;-56
2021/12/07 09:44:53;;;;;;;2.88;0.73;;;;;;;1.92;77.65;98489.66;4968403;28;20050;-53
2021/12/07 09:47:20;;;;;;;1.83;0.45;;;;;;;1.91;76.97;98493.06;4965723;28;20058;-54
2021/12/07 09:49:47;;;;;;;4.28;0.50;;;;;;;1.97;77.77;98471.81;4966713;28;20047;-53
2021/12/07 09:52:14;;;;;;;4.70;0.80;;;;;;;1.99;77.05;98475.22;4965355;28;20046;-56
2021/12/07 09:54:40;;;;;;;1.92;0.82;;;;;;;2.00;77.59;98461.63;4963943;28;20081;-56
2021/12/07 09:57:07;;;;;;;1.77;0.60;;;;;;;2.05;77.77;98457.41;4968419;28;20047;-55
2021/12/07 09:59:33;;;;;;;8.52;0.57;;;;;;;2.07;77.98;98452.31;4967050;28;20097;-53
2021/12/07 10:02:03;;;;;;;2.38;0.63;;;;;;;2.10;77.51;98441.25;4967372;28;20117;-55
2021/12/07 10:04:30;;;;;;;7.40;0.73;;;;;;;2.15;77.45;98442.97;4961048;28;20058;-54
2021/12/07 10:06:57;;;;;;;4.35;0.98;;;;;;;2.16;78.25;98425.97;4966657;28;20051;-53
2021/12/07 10:09:23;;;;;;;7.25;1.13;;;;;;;2.23;78.59;98427.66;4966158;28;20121;-53
2021/12/07 10:11:52;;;;;;;6.43;2.03;;;;;;;2.23;78.91;98403.84;4965815;28;20047;-55
2021/12/07 10:14:20;;;;;;;4.20;2.53;;;;;;;2.29;77.78;98402.16;4965786;28;20414;-53
2021/12/07 10:16:49;;;;;;;7.45;2.25;;;;;;;2.29;77.57;98376.63;4968176;28;20490;-55
2021/12/07 10:19:35;;;;;;;7.43;3.40;;;;;;;2.36;77.69;98371.53;4963968;28;20042;-54
2021/12/07 10:22:05;;;;;;;6.28;2.90;;;;;;;2.38;78.27;98365.59;4965388;28;20050;-53
2021/12/07 10:24:38;;;;;;;6.35;2.22;;;;;;;2.39;78.94;98367.28;4963483;28;20078;-51
2021/12/07 10:27:07;;;;;;;7.63;2.92;;;;;;;2.44;78.11;98346.84;4964566;28;20100;-53
2021/12/07 10:29:34;;;;;;;5.28;1.63;;;;;;;2.47;78.50;98321.31;4969208;28;20189;-53
2021/12/07 10:32:05;;;;;;;7.57;2.65;;;;;;;2.51;78.29;98294.91;4960322;28;20050;-53
2021/12/07 10:34:36;;;;;;;4.43;1.17;;;;;;;2.60;78.67;98277.88;4962933;28;20101;-50
2021/12/07 10:37:08;;;;;;;2.65;1.35;;;;;;;2.69;78.95;98252.31;4973873;28;20526;-54
2021/12/07 10:39:42;;;;;;;4.45;1.00;;;;;;;2.69;79.98;98236.97;4962279;28;20427;-55
2021/12/07 10:42:13;;;;;;;8.48;1.73;;;;;;;2.76;80.15;98246.34;4963404;28;20051;-55
2021/12/07 10:45:07;;;;;;;5.05;1.17;;;;;;;2.82;79.16;98238.69;4958968;28;20050;-52
2021/12/07 10:47:34;;;;;;;7.60;1.40;;;;;;;2.90;78.83;98225.88;4964372;28;20062;-56
2021/12/07 10:50:05;;;;;;;5.35;1.08;;;;;;;2.94;79.76;98217.34;4965442;28;20077;-52
2021/12/07 10:52:35;;;;;;;4.50;1.10;;;;;;;3.02;79.18;98199.44;4962476;28;20043;-52
2021/12/07 10:55:21;;;;;;;7.80;1.58;;;;;;;3.08;79.57;98171.28;4962440;28;20057;-54
2021/12/07 10:57:54;;;;;;;4.63;0.90;;;;;;;3.12;78.52;98178.94;4960232;28;20046;-52
2021/12/07 11:00:28;;;;;;;3.55;0.90;;;;;;;3.14;78.69;98151.66;4960090;28;20810;-50
2021/12/07 11:02:59;;;;;;;5.93;0.63;;;;;;;3.16;78.79;98155.91;4960955;28;20054;-55
2021/12/07 11:05:30;;;;;;;3.80;1.58;;;;;;;3.20;78.68;98141.41;4963342;28;20078;-52
2021/12/07 11:07:58;;;;;;;;;;;;;;;3.22;79.08;98134.56;4961340;28;20058;-54
2021/12/07 11:10:30;;;;;;;5.05;1.52;;;;;;;3.28;78.79;98113.22;4964037;28;20340;-56
2021/12/07 11:13:23;;;;;;;3.10;1.92;;;;;;;3.28;79.21;98098.72;4959118;28;20043;-57
2021/12/07 11:16:10;;;;;;;5.60;1.33;;;;;;;3.26;79.54;98100.44;4963161;28;20053;-56
2021/12/07 11:18:40;;;;;;;4.20;1.00;;;;;;;3.26;79.90;98079.97;4963161;28;20058;-52
2021/12/07 11:21:10;;;;;;;10.07;1.55;;;;;;;3.17;81.33;98080.00;4963261;28;20047;-55
2021/12/07 11:23:40;;;;;;;7.85;1.55;;;;;;;3.13;82.13;98062.97;4961423;28;20077;-52
2021/12/07 11:31:55;;;;;;;7.22;1.17;;;;;;;3.08;81.92;98039.97;4958487;28;20050;-52
2021/12/07 11:34:28;;;;;;;4.20;1.13;;;;;;;3.10;82.83;98014.41;4961518;28;20055;-52
2021/12/07 11:37:01;;;;;;;2.50;0.85;;;;;;;3.07;82.91;98003.31;4952822;28;20051;-51
2021/12/07 11:39:34;;;;;;;13.57;1.65;;;;;;;3.07;82.76;97993.09;4952917;28;20059;-50
2021/12/07 11:42:14;;;;;;;8.93;1.00;;;;;;;3.13;82.71;97992.19;4950440;28;20105;-53
2021/12/07 11:44:59;;;;;;;6.90;0.65;;;;;;;3.15;82.98;97981.97;4935894;28;20055;-51
2021/12/07 11:47:30;;;;;;;5.78;1.23;;;;;;;3.19;82.71;97955.50;4957882;28;20059;-55
2021/12/07 11:49:59;;;;;;;12.55;1.20;;;;;;;3.21;83.25;97933.31;4963713;28;20399;-50
2021/12/07 11:52:26;;;;;;;4.70;1.13;;;;;;;3.21;83.36;97923.09;4965817;28;20065;-53
2021/12/07 11:54:54;;;;;;;6.95;0.95;;;;;;;3.31;83.94;97908.50;4965321;28;20356;-55
2021/12/07 11:57:21;;;;;;;4.38;1.25;;;;;;;3.34;84.24;97891.41;4959839;28;20077;-53
2021/12/07 11:59:49;;;;;;;6.93;1.52;;;;;;;3.43;83.70;97882.81;4967515;28;20047;-51
2021/12/07 12:02:18;;;;;;;10.45;1.27;;;;;;;3.43;83.82;97882.81;4961416;28;20063;-54
2021/12/07 12:04:46;;;;;;;4.88;1.33;;;;;;;3.56;83.70;97875.88;4957699;28;20055;-52
2021/12/07 12:07:14;;;;;;;7.75;1.77;;;;;;;3.60;83.61;97844.25;4961743;28;20042;-53
2021/12/07 12:09:47;;;;;;;9.68;1.48;;;;;;;3.62;83.56;97826.34;4971394;28;20051;-54
2021/12/07 12:12:41;;;;;;;8.40;1.08;;;;;;;3.67;83.87;97821.16;4968402;28;20638;-52
2021/12/07 12:15:47;;;;;;;9.98;1.15;;;;;;;3.73;83.62;97803.16;4981457;28;20042;-52
2021/12/07 12:18:29;;;;;;;5.80;1.65;;;;;;;3.76;84.19;97805.69;4967820;28;20051;-52
2021/12/07 12:21:19;;;;;;;5.78;1.25;;;;;;;3.79;83.82;97782.63;4968613;28;20054;-56
2021/12/07 12:24:02;;;;;;;3.75;1.05;;;;;;;3.84;83.66;97775.72;4978976;28;20108;-55
2021/12/07 12:26:34;;;;;;;5.03;1.73;;;;;;;3.89;83.77;97746.66;4965728;28;20043;-52
2021/12/07 12:29:01;;;;;;;9.75;1.90;;;;;;;4.00;83.54;97755.03;4964542;28;20453;-48
2021/12/07 12:31:49;;;;;;;3.72;1.05;;;;;;;3.98;84.24;97731.13;4968089;28;20046;-50
2021/12/07 12:34:22;;;;;;;6.97;1.58;;;;;;;4.03;83.94;97706.34;4963342;28;20050;-51
2021/12/07 12:37:00;;;;;;;8.40;1.15;;;;;;;4.02;83.86;97691.81;4967682;28;20407;-49
2021/12/07 12:39:50;;;;;;;10.80;1.50;;;;;;;4.07;83.42;97679.81;4961353;28;20055;-52
2021/12/07 12:42:45;;;;;;;4.85;1.08;;;;;;;4.11;83.64;97675.47;4963362;28;20419;-51
2021/12/07 12:45:20;;;;;;;8.63;1.25;;;;;;;4.14;84.64;97643.81;4963235;28;20529;-50
2021/12/07 12:48:07;;;;;;;4.93;1.17;;;;;;;4.19;83.51;97624.13;4965027;28;20460;-51
2021/12/07 12:50:50;;;;;;;7.38;1.38;;;;;;;4.28;83.42;97606.03;4963600;28;20109;-50
2021/12/07 12:53:21;;;;;;;7.43;1.25;;;;;;;4.30;83.51;97585.50;4964827;28;20043;-52
2021/12/07 12:55:52;;;;;;;6.38;1.33;;;;;;;4.30;84.23;97595.75;4978675;28;20047;-49
2021/12/07 12:58:20;;;;;;;;;;;;;;;4.30;83.51;97578.66;4968406;28;20055;-50
2021/12/07 13:01:12;;;;;;;7.70;1.38;;;;;;;4.34;84.15;97559.78;4966446;28;20309;-52
2021/12/07 13:03:46;;;;;;;5.13;1.17;;;;;;;4.41;84.12;97549.41;4962102;28;20816;-51
2021/12/07 13:06:39;;;;;;;3.80;1.40;;;;;;;4.51;83.32;97515.06;4968225;28;20043;-52
2021/12/07 13:09:24;;;;;;;4.22;1.08;;;;;;;4.56;83.57;97508.13;4973857;28;20047;-51
2021/12/07 13:12:02;;;;;;;4.82;1.00;;;;;;;4.59;83.33;97474.72;4961025;28;20062;-50
2021/12/07 13:14:35;;;;;;;5.03;1.58;;;;;;;4.67;83.07;97463.47;4962230;28;20506;-54
2021/12/07 13:17:23;;;;;;;3.63;0.73;;;;;;;4.67;83.00;97455.78;4962336;28;20070;-54
2021/12/07 13:20:18;;;;;;;5.95;1.02;;;;;;;4.71;83.31;97421.50;4967441;28;20108;-55
2021/12/07 13:23:07;;;;;;;5.93;1.75;;;;;;;4.73;83.70;97418.03;4975756;28;21227;-51
2021/12/07 13:25:43;;;;;;;1.67;0.73;;;;;;;4.79;83.46;97405.97;4964324;28;20691;-51
2021/12/07 13:28:16;;;;;;;6.80;1.42;;;;;;;4.82;82.80;97414.44;4964129;28;20899;-51